Airfield :







YOU CAN JOIN US ON...

 
LOGIN :

Register | Disclaimer

   EN    FR    IT 

 









Legend :    VFR   Marginal VFR   IFR   Intensive IFR   Very Intensive IFR
Visi :
Ceiling :
>= 8 km
>= 3000ft
5 to 8 km
1000 to 3000 ft
1500m to 5 km
500 to 1000 ft
800 to 1500m
200 to 500 ft
< 800m
< 200 ft
Symbols :   Thunderstorms  Fog  Heavy snow  Heavy precipitations  Wind > 20 kt






- Airport Elevation : 328 ft


KGFL - Floyd Bennett Memorial

CURRENT METAR :
  • 200853Z AUTO 33003KT 10SM CLR M01/M02 A3004 RMK AO2 SLP177 T10111017 58005

EXPIRED METARs :
  • 200835Z AUTO 00000KT 6SM BR CLR M01/M02 A3004 RMK AO2 T10111017
  • 200826Z AUTO 00000KT 2 1/2SM BR CLR M02/M02 A3004 RMK AO2 T10171022
  • 200753Z AUTO 00000KT 4SM BR CLR M01/M02 A3004 RMK AO2 SLP178 T10061017
  • 200745Z AUTO 00000KT 1 3/4SM BR CLR M01/M01 A3005 RMK AO2 VIS 1V3 T10061011
  • 200653Z AUTO 00000KT 3SM BR CLR 00/M01 A3006 RMK AO2 SLP183 T00001011

TAF KGFL
Valid from the 20 at 08:00 until the 21 at 06:00 UTC


200750Z 2008/2106 00000KT 4SM BR SCT250
TEMPO 2008/2011 2SM BR
FM201300 VRB03KT P6SM BKN250
FM201700 18006KT P6SM BKN100 OVC250
FM202300 VRB03KT P6SM BKN050 BKN100



MET'MAP, your aeronautical weather chart ! - Copyright ORBIFLY December 2007 - Disclaimer

ORBIFLY MET'MAP TEAM :

Programming & Development : Alexandra Zaïnal
Concept & Development : Baudouin d'Aumeries
Co-Development & Prog : Marc-Olivier Méhu
Technical & hardware support : Manuel Goepfert

Contact : metmap@orbifly.com




SOURCES & CREDITS :

   NOAA